sensor_id;sensor_type;location;lat;lon;timestamp;temperature;humidity
53962;DHT22;39868;53.398;6.564;2023-07-13T00:00:37;19.70;64.60
53962;DHT22;39868;53.398;6.564;2023-07-13T00:03:04;19.70;64.70
53962;DHT22;39868;53.398;6.564;2023-07-13T00:05:32;19.70;64.80
53962;DHT22;39868;53.398;6.564;2023-07-13T00:10:56;19.60;65.00
53962;DHT22;39868;53.398;6.564;2023-07-13T00:13:26;19.70;65.10
53962;DHT22;39868;53.398;6.564;2023-07-13T00:15:56;19.70;65.20
53962;DHT22;39868;53.398;6.564;2023-07-13T00:18:23;19.70;65.30
53962;DHT22;39868;53.398;6.564;2023-07-13T00:20:57;19.60;65.30
53962;DHT22;39868;53.398;6.564;2023-07-13T00:23:40;19.70;65.50
53962;DHT22;39868;53.398;6.564;2023-07-13T00:26:08;19.60;65.60
53962;DHT22;39868;53.398;6.564;2023-07-13T00:28:37;19.60;65.60
53962;DHT22;39868;53.398;6.564;2023-07-13T00:31:05;19.60;65.70
53962;DHT22;39868;53.398;6.564;2023-07-13T00:33:35;19.70;65.80
53962;DHT22;39868;53.398;6.564;2023-07-13T00:36:02;19.60;66.40
53962;DHT22;39868;53.398;6.564;2023-07-13T00:38:30;19.70;66.00
53962;DHT22;39868;53.398;6.564;2023-07-13T00:40:57;19.70;66.10
53962;DHT22;39868;53.398;6.564;2023-07-13T00:43:26;19.60;66.10
53962;DHT22;39868;53.398;6.564;2023-07-13T00:48:58;19.70;66.20
53962;DHT22;39868;53.398;6.564;2023-07-13T00:51:28;19.60;66.30
53962;DHT22;39868;53.398;6.564;2023-07-13T00:54:00;19.70;66.30
53962;DHT22;39868;53.398;6.564;2023-07-13T00:56:30;19.60;66.30
53962;DHT22;39868;53.398;6.564;2023-07-13T00:58:59;19.60;66.40
53962;DHT22;39868;53.398;6.564;2023-07-13T01:01:27;19.60;66.40
53962;DHT22;39868;53.398;6.564;2023-07-13T01:03:55;19.60;66.50
53962;DHT22;39868;53.398;6.564;2023-07-13T01:06:24;19.60;66.50
53962;DHT22;39868;53.398;6.564;2023-07-13T01:08:52;19.60;66.50
53962;DHT22;39868;53.398;6.564;2023-07-13T01:11:20;19.60;66.60
53962;DHT22;39868;53.398;6.564;2023-07-13T01:13:48;19.60;66.70
53962;DHT22;39868;53.398;6.564;2023-07-13T01:16:24;19.60;66.70
53962;DHT22;39868;53.398;6.564;2023-07-13T01:18:52;19.60;66.80
53962;DHT22;39868;53.398;6.564;2023-07-13T01:21:19;19.50;66.80
53962;DHT22;39868;53.398;6.564;2023-07-13T01:23:49;19.50;66.80
53962;DHT22;39868;53.398;6.564;2023-07-13T01:26:16;19.50;66.90
53962;DHT22;39868;53.398;6.564;2023-07-13T01:28:44;19.50;66.90
53962;DHT22;39868;53.398;6.564;2023-07-13T01:31:11;19.50;67.00
53962;DHT22;39868;53.398;6.564;2023-07-13T01:33:41;19.50;67.10
53962;DHT22;39868;53.398;6.564;2023-07-13T01:36:09;19.50;67.10
53962;DHT22;39868;53.398;6.564;2023-07-13T01:38:37;19.50;67.10
53962;DHT22;39868;53.398;6.564;2023-07-13T01:41:06;19.50;67.20
53962;DHT22;39868;53.398;6.564;2023-07-13T01:43:34;19.50;67.30
53962;DHT22;39868;53.398;6.564;2023-07-13T01:46:01;19.50;67.40
53962;DHT22;39868;53.398;6.564;2023-07-13T01:48:49;19.50;67.40
53962;DHT22;39868;53.398;6.564;2023-07-13T01:51:17;19.50;67.50
53962;DHT22;39868;53.398;6.564;2023-07-13T01:53:44;19.50;67.60
53962;DHT22;39868;53.398;6.564;2023-07-13T01:56:12;19.50;67.60
53962;DHT22;39868;53.398;6.564;2023-07-13T01:58:40;19.50;67.60
53962;DHT22;39868;53.398;6.564;2023-07-13T02:01:07;19.50;67.70
53962;DHT22;39868;53.398;6.564;2023-07-13T02:03:35;19.50;67.70
53962;DHT22;39868;53.398;6.564;2023-07-13T02:06:02;19.50;67.80
53962;DHT22;39868;53.398;6.564;2023-07-13T02:08:30;19.40;67.80
53962;DHT22;39868;53.398;6.564;2023-07-13T02:10:58;19.50;67.90
53962;DHT22;39868;53.398;6.564;2023-07-13T02:13:27;19.50;68.00
53962;DHT22;39868;53.398;6.564;2023-07-13T02:15:55;19.50;68.00
53962;DHT22;39868;53.398;6.564;2023-07-13T02:18:23;19.50;68.00
53962;DHT22;39868;53.398;6.564;2023-07-13T02:20:50;19.50;68.10
53962;DHT22;39868;53.398;6.564;2023-07-13T02:23:17;19.50;68.10
53962;DHT22;39868;53.398;6.564;2023-07-13T02:25:46;19.50;68.10
53962;DHT22;39868;53.398;6.564;2023-07-13T02:28:15;19.50;68.10
53962;DHT22;39868;53.398;6.564;2023-07-13T02:30:42;19.50;68.10
53962;DHT22;39868;53.398;6.564;2023-07-13T02:33:10;19.40;68.10
53962;DHT22;39868;53.398;6.564;2023-07-13T02:35:37;19.40;68.10
53962;DHT22;39868;53.398;6.564;2023-07-13T02:38:04;19.40;68.20
53962;DHT22;39868;53.398;6.564;2023-07-13T02:40:32;19.40;68.20
53962;DHT22;39868;53.398;6.564;2023-07-13T02:43:02;19.40;68.20
53962;DHT22;39868;53.398;6.564;2023-07-13T02:45:31;19.40;68.20
53962;DHT22;39868;53.398;6.564;2023-07-13T02:47:58;19.40;68.20
53962;DHT22;39868;53.398;6.564;2023-07-13T02:50:25;19.40;68.30
53962;DHT22;39868;53.398;6.564;2023-07-13T02:52:54;19.30;68.30
53962;DHT22;39868;53.398;6.564;2023-07-13T02:55:21;19.30;68.30
53962;DHT22;39868;53.398;6.564;2023-07-13T02:57:48;19.30;68.40
53962;DHT22;39868;53.398;6.564;2023-07-13T03:00:17;19.30;68.50
53962;DHT22;39868;53.398;6.564;2023-07-13T03:02:44;19.30;68.50
53962;DHT22;39868;53.398;6.564;2023-07-13T03:05:12;19.30;68.50
53962;DHT22;39868;53.398;6.564;2023-07-13T03:07:41;19.30;68.60
53962;DHT22;39868;53.398;6.564;2023-07-13T03:10:09;19.30;68.70
53962;DHT22;39868;53.398;6.564;2023-07-13T03:12:43;19.30;68.70
53962;DHT22;39868;53.398;6.564;2023-07-13T03:15:19;19.30;68.80
53962;DHT22;39868;53.398;6.564;2023-07-13T03:17:48;19.30;68.80
53962;DHT22;39868;53.398;6.564;2023-07-13T03:20:16;19.20;68.80
53962;DHT22;39868;53.398;6.564;2023-07-13T03:22:44;19.30;68.90
53962;DHT22;39868;53.398;6.564;2023-07-13T03:25:11;19.30;69.00
53962;DHT22;39868;53.398;6.564;2023-07-13T03:27:39;19.20;69.00
53962;DHT22;39868;53.398;6.564;2023-07-13T03:30:08;19.20;69.10
53962;DHT22;39868;53.398;6.564;2023-07-13T03:32:36;19.20;69.10
53962;DHT22;39868;53.398;6.564;2023-07-13T03:35:04;19.20;69.20
53962;DHT22;39868;53.398;6.564;2023-07-13T03:37:31;19.20;69.20
53962;DHT22;39868;53.398;6.564;2023-07-13T03:39:59;19.20;69.30
53962;DHT22;39868;53.398;6.564;2023-07-13T03:42:26;19.30;69.40
53962;DHT22;39868;53.398;6.564;2023-07-13T03:44:54;19.30;69.50
53962;DHT22;39868;53.398;6.564;2023-07-13T03:47:22;19.30;69.50
53962;DHT22;39868;53.398;6.564;2023-07-13T03:49:49;19.30;69.50
53962;DHT22;39868;53.398;6.564;2023-07-13T03:52:16;19.30;69.50
53962;DHT22;39868;53.398;6.564;2023-07-13T03:54:44;19.30;69.50
53962;DHT22;39868;53.398;6.564;2023-07-13T03:57:12;19.30;69.60
53962;DHT22;39868;53.398;6.564;2023-07-13T03:59:39;19.30;69.60
53962;DHT22;39868;53.398;6.564;2023-07-13T04:02:08;19.30;69.60
53962;DHT22;39868;53.398;6.564;2023-07-13T04:04:35;19.30;69.60
53962;DHT22;39868;53.398;6.564;2023-07-13T04:07:03;19.30;69.60
53962;DHT22;39868;53.398;6.564;2023-07-13T04:09:30;19.30;69.60
53962;DHT22;39868;53.398;6.564;2023-07-13T04:12:00;19.30;69.70
53962;DHT22;39868;53.398;6.564;2023-07-13T04:14:31;19.30;69.70
53962;DHT22;39868;53.398;6.564;2023-07-13T04:16:58;19.30;69.70
53962;DHT22;39868;53.398;6.564;2023-07-13T04:19:26;19.30;69.70
53962;DHT22;39868;53.398;6.564;2023-07-13T04:21:59;19.30;69.80
53962;DHT22;39868;53.398;6.564;2023-07-13T04:24:26;19.30;69.80
53962;DHT22;39868;53.398;6.564;2023-07-13T04:26:55;19.30;69.80
53962;DHT22;39868;53.398;6.564;2023-07-13T04:29:26;19.30;69.80
53962;DHT22;39868;53.398;6.564;2023-07-13T04:31:53;19.30;69.90
53962;DHT22;39868;53.398;6.564;2023-07-13T04:34:21;19.30;69.90
53962;DHT22;39868;53.398;6.564;2023-07-13T04:36:51;19.30;70.00
53962;DHT22;39868;53.398;6.564;2023-07-13T04:39:19;19.30;70.00
53962;DHT22;39868;53.398;6.564;2023-07-13T04:41:47;19.20;70.00
53962;DHT22;39868;53.398;6.564;2023-07-13T04:44:14;19.30;70.20
53962;DHT22;39868;53.398;6.564;2023-07-13T04:46:42;19.30;70.20
53962;DHT22;39868;53.398;6.564;2023-07-13T04:49:09;19.30;70.30
53962;DHT22;39868;53.398;6.564;2023-07-13T04:51:36;19.30;70.40
53962;DHT22;39868;53.398;6.564;2023-07-13T04:54:04;19.30;70.40
53962;DHT22;39868;53.398;6.564;2023-07-13T04:56:39;19.30;70.50
53962;DHT22;39868;53.398;6.564;2023-07-13T04:59:06;19.30;70.60
53962;DHT22;39868;53.398;6.564;2023-07-13T05:01:34;19.30;70.60
53962;DHT22;39868;53.398;6.564;2023-07-13T05:04:01;19.30;70.70
53962;DHT22;39868;53.398;6.564;2023-07-13T05:06:29;19.30;70.70
53962;DHT22;39868;53.398;6.564;2023-07-13T05:08:57;19.30;70.80
53962;DHT22;39868;53.398;6.564;2023-07-13T05:11:24;19.30;70.90
53962;DHT22;39868;53.398;6.564;2023-07-13T05:13:52;19.40;71.00
53962;DHT22;39868;53.398;6.564;2023-07-13T05:16:19;19.40;71.10
53962;DHT22;39868;53.398;6.564;2023-07-13T05:18:47;19.40;71.20
53962;DHT22;39868;53.398;6.564;2023-07-13T05:21:14;19.40;71.20
53962;DHT22;39868;53.398;6.564;2023-07-13T05:23:41;19.40;71.30
53962;DHT22;39868;53.398;6.564;2023-07-13T05:26:09;19.50;71.40
53962;DHT22;39868;53.398;6.564;2023-07-13T05:28:36;19.50;71.50
53962;DHT22;39868;53.398;6.564;2023-07-13T05:31:07;19.50;71.50
53962;DHT22;39868;53.398;6.564;2023-07-13T05:33:34;19.60;71.60
53962;DHT22;39868;53.398;6.564;2023-07-13T05:36:01;19.60;71.80
53962;DHT22;39868;53.398;6.564;2023-07-13T05:38:28;19.60;71.80
53962;DHT22;39868;53.398;6.564;2023-07-13T05:40:56;19.60;71.80
53962;DHT22;39868;53.398;6.564;2023-07-13T05:43:24;19.70;72.00
53962;DHT22;39868;53.398;6.564;2023-07-13T05:45:53;19.70;72.10
53962;DHT22;39868;53.398;6.564;2023-07-13T05:48:20;19.80;72.30
53962;DHT22;39868;53.398;6.564;2023-07-13T05:50:48;19.80;72.30
53962;DHT22;39868;53.398;6.564;2023-07-13T05:53:16;19.90;72.30
53962;DHT22;39868;53.398;6.564;2023-07-13T05:55:43;19.90;72.40
53962;DHT22;39868;53.398;6.564;2023-07-13T05:58:11;19.90;72.40
53962;DHT22;39868;53.398;6.564;2023-07-13T06:00:39;20.00;72.40
53962;DHT22;39868;53.398;6.564;2023-07-13T06:03:06;20.00;72.50
53962;DHT22;39868;53.398;6.564;2023-07-13T06:05:34;20.10;72.50
53962;DHT22;39868;53.398;6.564;2023-07-13T06:08:03;20.20;72.60
53962;DHT22;39868;53.398;6.564;2023-07-13T06:10:34;20.20;72.60
53962;DHT22;39868;53.398;6.564;2023-07-13T06:13:01;20.20;72.50
53962;DHT22;39868;53.398;6.564;2023-07-13T06:15:30;20.30;72.60
53962;DHT22;39868;53.398;6.564;2023-07-13T06:17:57;20.30;72.60
53962;DHT22;39868;53.398;6.564;2023-07-13T06:20:24;20.40;72.70
53962;DHT22;39868;53.398;6.564;2023-07-13T06:22:52;20.40;72.80
53962;DHT22;39868;53.398;6.564;2023-07-13T06:25:19;20.40;72.70
53962;DHT22;39868;53.398;6.564;2023-07-13T06:27:46;20.50;72.70
53962;DHT22;39868;53.398;6.564;2023-07-13T06:30:14;20.50;72.70
53962;DHT22;39868;53.398;6.564;2023-07-13T06:32:41;20.60;72.70
53962;DHT22;39868;53.398;6.564;2023-07-13T06:35:08;20.60;72.70
53962;DHT22;39868;53.398;6.564;2023-07-13T06:37:39;20.70;72.70
53962;DHT22;39868;53.398;6.564;2023-07-13T06:40:08;20.70;72.80
53962;DHT22;39868;53.398;6.564;2023-07-13T06:42:36;20.80;72.80
53962;DHT22;39868;53.398;6.564;2023-07-13T06:45:03;20.80;72.80
53962;DHT22;39868;53.398;6.564;2023-07-13T06:47:30;20.90;72.90
53962;DHT22;39868;53.398;6.564;2023-07-13T06:50:00;20.90;72.80
53962;DHT22;39868;53.398;6.564;2023-07-13T06:52:27;21.00;72.70
53962;DHT22;39868;53.398;6.564;2023-07-13T06:54:54;21.00;72.50
53962;DHT22;39868;53.398;6.564;2023-07-13T06:57:22;21.00;72.30
53962;DHT22;39868;53.398;6.564;2023-07-13T06:59:49;21.10;72.10
53962;DHT22;39868;53.398;6.564;2023-07-13T07:02:17;21.00;71.80
53962;DHT22;39868;53.398;6.564;2023-07-13T07:04:44;21.10;71.80
53962;DHT22;39868;53.398;6.564;2023-07-13T07:07:11;21.10;71.80
53962;DHT22;39868;53.398;6.564;2023-07-13T07:09:39;21.10;71.80
53962;DHT22;39868;53.398;6.564;2023-07-13T07:12:06;21.20;71.80
53962;DHT22;39868;53.398;6.564;2023-07-13T07:14:33;21.30;71.90
53962;DHT22;39868;53.398;6.564;2023-07-13T07:17:01;21.30;71.80
53962;DHT22;39868;53.398;6.564;2023-07-13T07:19:29;21.40;71.70
53962;DHT22;39868;53.398;6.564;2023-07-13T07:21:56;21.40;71.60
53962;DHT22;39868;53.398;6.564;2023-07-13T07:24:23;21.50;71.40
53962;DHT22;39868;53.398;6.564;2023-07-13T07:26:51;21.50;71.30
53962;DHT22;39868;53.398;6.564;2023-07-13T07:29:21;21.60;71.20
53962;DHT22;39868;53.398;6.564;2023-07-13T07:31:52;21.60;71.10
53962;DHT22;39868;53.398;6.564;2023-07-13T07:34:22;21.60;71.00
53962;DHT22;39868;53.398;6.564;2023-07-13T07:36:50;21.70;71.00
53962;DHT22;39868;53.398;6.564;2023-07-13T07:39:20;21.80;71.00
53962;DHT22;39868;53.398;6.564;2023-07-13T07:41:47;21.80;70.90
53962;DHT22;39868;53.398;6.564;2023-07-13T07:44:17;21.90;70.90
53962;DHT22;39868;53.398;6.564;2023-07-13T07:46:45;22.00;70.80
53962;DHT22;39868;53.398;6.564;2023-07-13T07:49:13;22.10;70.70
53962;DHT22;39868;53.398;6.564;2023-07-13T07:51:40;22.20;70.70
53962;DHT22;39868;53.398;6.564;2023-07-13T07:54:07;22.30;70.50
53962;DHT22;39868;53.398;6.564;2023-07-13T07:56:40;22.30;70.30
53962;DHT22;39868;53.398;6.564;2023-07-13T07:59:27;22.40;70.20
53962;DHT22;39868;53.398;6.564;2023-07-13T08:01:57;22.40;69.80
53962;DHT22;39868;53.398;6.564;2023-07-13T08:04:27;22.50;69.60
53962;DHT22;39868;53.398;6.564;2023-07-13T08:06:58;22.50;69.50
53962;DHT22;39868;53.398;6.564;2023-07-13T08:09:25;22.50;69.30
53962;DHT22;39868;53.398;6.564;2023-07-13T08:11:52;22.50;69.10
53962;DHT22;39868;53.398;6.564;2023-07-13T08:14:24;22.50;69.10
53962;DHT22;39868;53.398;6.564;2023-07-13T08:17:08;22.50;68.90
53962;DHT22;39868;53.398;6.564;2023-07-13T08:19:36;22.50;68.60
53962;DHT22;39868;53.398;6.564;2023-07-13T08:22:05;22.50;68.60
53962;DHT22;39868;53.398;6.564;2023-07-13T08:24:32;22.60;68.60
53962;DHT22;39868;53.398;6.564;2023-07-13T08:27:00;22.60;68.60
53962;DHT22;39868;53.398;6.564;2023-07-13T08:29:28;22.60;68.60
53962;DHT22;39868;53.398;6.564;2023-07-13T08:31:55;22.60;68.50
53962;DHT22;39868;53.398;6.564;2023-07-13T08:34:24;22.60;68.20
53962;DHT22;39868;53.398;6.564;2023-07-13T08:36:51;22.60;68.00
53962;DHT22;39868;53.398;6.564;2023-07-13T08:39:19;22.60;67.90
53962;DHT22;39868;53.398;6.564;2023-07-13T08:41:51;22.60;68.00
53962;DHT22;39868;53.398;6.564;2023-07-13T08:44:25;22.60;67.80
53962;DHT22;39868;53.398;6.564;2023-07-13T08:46:54;22.60;67.70
53962;DHT22;39868;53.398;6.564;2023-07-13T08:49:23;22.60;68.00
53962;DHT22;39868;53.398;6.564;2023-07-13T08:51:53;22.60;67.80
53962;DHT22;39868;53.398;6.564;2023-07-13T08:54:30;22.60;67.90
53962;DHT22;39868;53.398;6.564;2023-07-13T08:57:00;22.70;67.80
53962;DHT22;39868;53.398;6.564;2023-07-13T08:59:30;22.70;67.90
53962;DHT22;39868;53.398;6.564;2023-07-13T09:04:41;22.80;67.60
53962;DHT22;39868;53.398;6.564;2023-07-13T09:07:12;22.90;67.20
53962;DHT22;39868;53.398;6.564;2023-07-13T09:17:17;22.90;66.70
53962;DHT22;39868;53.398;6.564;2023-07-13T09:19:46;22.90;66.30
53962;DHT22;39868;53.398;6.564;2023-07-13T09:22:16;22.90;66.50
53962;DHT22;39868;53.398;6.564;2023-07-13T09:27:14;22.80;66.60
53962;DHT22;39868;53.398;6.564;2023-07-13T09:29:54;22.70;66.60
53962;DHT22;39868;53.398;6.564;2023-07-13T09:32:23;22.70;66.70
53962;DHT22;39868;53.398;6.564;2023-07-13T09:34:55;22.60;66.70
53962;DHT22;39868;53.398;6.564;2023-07-13T09:37:26;22.50;66.70
53962;DHT22;39868;53.398;6.564;2023-07-13T09:39:54;22.50;66.90
53962;DHT22;39868;53.398;6.564;2023-07-13T09:42:23;22.50;67.00
53962;DHT22;39868;53.398;6.564;2023-07-13T09:44:59;22.50;67.30
53962;DHT22;39868;53.398;6.564;2023-07-13T09:47:27;22.50;67.50
53962;DHT22;39868;53.398;6.564;2023-07-13T09:49:57;22.50;67.50
53962;DHT22;39868;53.398;6.564;2023-07-13T09:52:39;22.50;67.20
53962;DHT22;39868;53.398;6.564;2023-07-13T09:55:23;22.50;67.10
53962;DHT22;39868;53.398;6.564;2023-07-13T09:57:50;22.40;66.80
53962;DHT22;39868;53.398;6.564;2023-07-13T10:00:28;22.40;66.70
53962;DHT22;39868;53.398;6.564;2023-07-13T10:02:59;22.40;66.50
53962;DHT22;39868;53.398;6.564;2023-07-13T10:05:27;22.30;66.40
53962;DHT22;39868;53.398;6.564;2023-07-13T10:07:55;22.30;66.30
53962;DHT22;39868;53.398;6.564;2023-07-13T10:10:23;22.30;66.20
53962;DHT22;39868;53.398;6.564;2023-07-13T10:12:50;22.30;66.30
53962;DHT22;39868;53.398;6.564;2023-07-13T10:15:19;22.20;66.00
53962;DHT22;39868;53.398;6.564;2023-07-13T10:17:51;22.30;66.00
53962;DHT22;39868;53.398;6.564;2023-07-13T10:20:20;22.30;66.20
53962;DHT22;39868;53.398;6.564;2023-07-13T10:22:52;22.40;66.20
53962;DHT22;39868;53.398;6.564;2023-07-13T10:25:23;22.50;66.10
53962;DHT22;39868;53.398;6.564;2023-07-13T10:27:54;22.60;66.00
53962;DHT22;39868;53.398;6.564;2023-07-13T10:30:41;22.70;66.40
53962;DHT22;39868;53.398;6.564;2023-07-13T10:33:10;22.90;66.40
53962;DHT22;39868;53.398;6.564;2023-07-13T10:35:39;23.00;66.30
53962;DHT22;39868;53.398;6.564;2023-07-13T10:38:11;23.10;65.70
53962;DHT22;39868;53.398;6.564;2023-07-13T10:43:20;23.40;65.80
53962;DHT22;39868;53.398;6.564;2023-07-13T10:45:49;23.50;65.60
53962;DHT22;39868;53.398;6.564;2023-07-13T10:48:17;23.70;65.20
53962;DHT22;39868;53.398;6.564;2023-07-13T10:50:45;23.80;65.00
53962;DHT22;39868;53.398;6.564;2023-07-13T10:53:20;23.90;64.80
53962;DHT22;39868;53.398;6.564;2023-07-13T10:58:22;24.00;64.30
53962;DHT22;39868;53.398;6.564;2023-07-13T11:01:23;24.00;63.80
53962;DHT22;39868;53.398;6.564;2023-07-13T11:06:12;24.10;63.50
53962;DHT22;39868;53.398;6.564;2023-07-13T11:11:36;24.10;63.40
53962;DHT22;39868;53.398;6.564;2023-07-13T11:14:04;24.20;63.00
53962;DHT22;39868;53.398;6.564;2023-07-13T11:16:36;24.20;62.90
53962;DHT22;39868;53.398;6.564;2023-07-13T11:21:32;24.30;62.70
53962;DHT22;39868;53.398;6.564;2023-07-13T11:26:43;24.30;62.60
53962;DHT22;39868;53.398;6.564;2023-07-13T11:31:54;24.40;62.60
53962;DHT22;39868;53.398;6.564;2023-07-13T11:34:33;24.40;62.70
53962;DHT22;39868;53.398;6.564;2023-07-13T11:37:02;24.40;62.30
53962;DHT22;39868;53.398;6.564;2023-07-13T11:39:34;24.40;61.80
53962;DHT22;39868;53.398;6.564;2023-07-13T11:42:03;24.40;62.60
53962;DHT22;39868;53.398;6.564;2023-07-13T11:44:32;24.40;61.90
53962;DHT22;39868;53.398;6.564;2023-07-13T11:47:08;24.40;62.00
53962;DHT22;39868;53.398;6.564;2023-07-13T11:50:16;24.40;62.00
53962;DHT22;39868;53.398;6.564;2023-07-13T11:52:39;24.40;62.20
53962;DHT22;39868;53.398;6.564;2023-07-13T11:55:13;24.50;62.10
53962;DHT22;39868;53.398;6.564;2023-07-13T11:57:45;24.50;61.90
53962;DHT22;39868;53.398;6.564;2023-07-13T12:00:15;24.60;62.10
53962;DHT22;39868;53.398;6.564;2023-07-13T12:02:47;24.70;62.20
53962;DHT22;39868;53.398;6.564;2023-07-13T12:05:17;24.70;62.00
53962;DHT22;39868;53.398;6.564;2023-07-13T12:07:44;24.80;62.00
53962;DHT22;39868;53.398;6.564;2023-07-13T12:10:22;24.80;61.80
53962;DHT22;39868;53.398;6.564;2023-07-13T12:12:55;24.80;61.40
53962;DHT22;39868;53.398;6.564;2023-07-13T12:15:23;24.80;61.20
53962;DHT22;39868;53.398;6.564;2023-07-13T12:17:50;24.70;60.90
53962;DHT22;39868;53.398;6.564;2023-07-13T12:20:23;24.60;60.80
53962;DHT22;39868;53.398;6.564;2023-07-13T12:22:51;24.60;60.70
53962;DHT22;39868;53.398;6.564;2023-07-13T12:25:19;24.50;60.90
53962;DHT22;39868;53.398;6.564;2023-07-13T12:27:47;24.40;61.10
53962;DHT22;39868;53.398;6.564;2023-07-13T12:30:30;24.30;61.10
53962;DHT22;39868;53.398;6.564;2023-07-13T12:33:07;24.30;61.20
53962;DHT22;39868;53.398;6.564;2023-07-13T12:35:55;24.30;61.50
53962;DHT22;39868;53.398;6.564;2023-07-13T12:38:27;24.30;61.90
53962;DHT22;39868;53.398;6.564;2023-07-13T12:40:56;24.30;61.20
53962;DHT22;39868;53.398;6.564;2023-07-13T12:43:25;24.30;61.30
53962;DHT22;39868;53.398;6.564;2023-07-13T12:46:04;24.20;61.50
53962;DHT22;39868;53.398;6.564;2023-07-13T12:48:39;24.20;61.60
53962;DHT22;39868;53.398;6.564;2023-07-13T12:51:16;24.10;61.50
53962;DHT22;39868;53.398;6.564;2023-07-13T12:53:47;24.00;61.40
53962;DHT22;39868;53.398;6.564;2023-07-13T12:56:20;24.00;61.40
53962;DHT22;39868;53.398;6.564;2023-07-13T12:58:48;23.90;61.40
53962;DHT22;39868;53.398;6.564;2023-07-13T13:01:21;23.80;61.50
53962;DHT22;39868;53.398;6.564;2023-07-13T13:03:50;23.70;61.40
53962;DHT22;39868;53.398;6.564;2023-07-13T13:06:24;23.70;61.50
53962;DHT22;39868;53.398;6.564;2023-07-13T13:08:52;23.60;61.60
53962;DHT22;39868;53.398;6.564;2023-07-13T13:11:20;23.50;61.70
53962;DHT22;39868;53.398;6.564;2023-07-13T13:13:48;23.50;61.80
53962;DHT22;39868;53.398;6.564;2023-07-13T13:18:50;23.30;62.20
53962;DHT22;39868;53.398;6.564;2023-07-13T13:21:18;23.20;62.70
53962;DHT22;39868;53.398;6.564;2023-07-13T13:23:46;23.20;62.70
53962;DHT22;39868;53.398;6.564;2023-07-13T13:26:14;23.10;62.90
53962;DHT22;39868;53.398;6.564;2023-07-13T13:28:45;23.00;63.20
53962;DHT22;39868;53.398;6.564;2023-07-13T13:31:12;23.00;63.40
53962;DHT22;39868;53.398;6.564;2023-07-13T13:33:41;22.90;63.70
53962;DHT22;39868;53.398;6.564;2023-07-13T13:36:17;22.90;63.60
53962;DHT22;39868;53.398;6.564;2023-07-13T13:38:45;22.90;64.10
53962;DHT22;39868;53.398;6.564;2023-07-13T13:41:13;22.90;64.20
53962;DHT22;39868;53.398;6.564;2023-07-13T13:43:41;22.90;64.20
53962;DHT22;39868;53.398;6.564;2023-07-13T13:46:22;23.00;64.30
53962;DHT22;39868;53.398;6.564;2023-07-13T13:48:52;23.00;64.30
53962;DHT22;39868;53.398;6.564;2023-07-13T13:51:20;23.00;64.50
53962;DHT22;39868;53.398;6.564;2023-07-13T13:53:48;23.10;64.70
53962;DHT22;39868;53.398;6.564;2023-07-13T13:56:16;23.10;64.60
53962;DHT22;39868;53.398;6.564;2023-07-13T13:58:44;23.20;64.70
53962;DHT22;39868;53.398;6.564;2023-07-13T14:01:12;23.30;64.80
53962;DHT22;39868;53.398;6.564;2023-07-13T14:03:41;23.40;64.60
53962;DHT22;39868;53.398;6.564;2023-07-13T14:06:11;23.40;64.20
53962;DHT22;39868;53.398;6.564;2023-07-13T14:08:39;23.50;64.20
53962;DHT22;39868;53.398;6.564;2023-07-13T14:11:10;23.50;64.20
53962;DHT22;39868;53.398;6.564;2023-07-13T14:13:39;23.60;64.20
53962;DHT22;39868;53.398;6.564;2023-07-13T14:16:11;23.60;64.20
53962;DHT22;39868;53.398;6.564;2023-07-13T14:18:40;23.70;64.10
53962;DHT22;39868;53.398;6.564;2023-07-13T14:21:18;23.70;63.90
53962;DHT22;39868;53.398;6.564;2023-07-13T14:23:46;23.70;63.60
53962;DHT22;39868;53.398;6.564;2023-07-13T14:26:21;23.70;63.70
53962;DHT22;39868;53.398;6.564;2023-07-13T14:28:53;23.70;63.70
53962;DHT22;39868;53.398;6.564;2023-07-13T14:31:21;23.80;63.90
53962;DHT22;39868;53.398;6.564;2023-07-13T14:33:55;23.80;63.90
53962;DHT22;39868;53.398;6.564;2023-07-13T14:36:29;23.90;64.10
53962;DHT22;39868;53.398;6.564;2023-07-13T14:38:57;24.00;64.00
53962;DHT22;39868;53.398;6.564;2023-07-13T14:41:25;24.10;63.60
53962;DHT22;39868;53.398;6.564;2023-07-13T14:43:52;24.20;63.60
53962;DHT22;39868;53.398;6.564;2023-07-13T14:46:30;24.20;63.70
53962;DHT22;39868;53.398;6.564;2023-07-13T14:49:05;24.20;63.30
53962;DHT22;39868;53.398;6.564;2023-07-13T14:51:33;24.10;63.20
53962;DHT22;39868;53.398;6.564;2023-07-13T14:54:02;24.10;63.00
53962;DHT22;39868;53.398;6.564;2023-07-13T14:56:31;24.20;63.30
53962;DHT22;39868;53.398;6.564;2023-07-13T14:58:58;24.20;63.50
53962;DHT22;39868;53.398;6.564;2023-07-13T15:01:25;24.20;63.20
53962;DHT22;39868;53.398;6.564;2023-07-13T15:03:53;24.20;62.90
53962;DHT22;39868;53.398;6.564;2023-07-13T15:06:21;24.20;62.60
53962;DHT22;39868;53.398;6.564;2023-07-13T15:08:48;24.20;62.60
53962;DHT22;39868;53.398;6.564;2023-07-13T15:11:16;24.10;62.50
53962;DHT22;39868;53.398;6.564;2023-07-13T15:13:44;24.10;62.30
53962;DHT22;39868;53.398;6.564;2023-07-13T15:16:16;24.00;62.50
53962;DHT22;39868;53.398;6.564;2023-07-13T15:18:45;24.00;62.40
53962;DHT22;39868;53.398;6.564;2023-07-13T15:21:14;24.00;62.40
53962;DHT22;39868;53.398;6.564;2023-07-13T15:23:44;24.00;62.10
53962;DHT22;39868;53.398;6.564;2023-07-13T15:26:12;23.90;61.90
53962;DHT22;39868;53.398;6.564;2023-07-13T15:28:41;23.90;62.20
53962;DHT22;39868;53.398;6.564;2023-07-13T15:31:20;23.90;62.20
53962;DHT22;39868;53.398;6.564;2023-07-13T15:33:49;23.90;62.10
53962;DHT22;39868;53.398;6.564;2023-07-13T15:36:17;23.90;61.90
53962;DHT22;39868;53.398;6.564;2023-07-13T15:38:45;23.90;62.00
53962;DHT22;39868;53.398;6.564;2023-07-13T15:43:51;23.90;62.30
53962;DHT22;39868;53.398;6.564;2023-07-13T15:46:19;24.00;62.20
53962;DHT22;39868;53.398;6.564;2023-07-13T15:48:51;24.00;62.00
53962;DHT22;39868;53.398;6.564;2023-07-13T15:53:56;24.20;62.20
53962;DHT22;39868;53.398;6.564;2023-07-13T15:56:26;24.20;62.40
53962;DHT22;39868;53.398;6.564;2023-07-13T15:58:54;24.30;62.30
53962;DHT22;39868;53.398;6.564;2023-07-13T16:01:22;24.30;62.10
53962;DHT22;39868;53.398;6.564;2023-07-13T16:03:49;24.30;61.70
53962;DHT22;39868;53.398;6.564;2023-07-13T16:06:37;24.30;61.60
53962;DHT22;39868;53.398;6.564;2023-07-13T16:09:10;24.40;61.40
53962;DHT22;39868;53.398;6.564;2023-07-13T16:11:39;24.40;61.60
53962;DHT22;39868;53.398;6.564;2023-07-13T16:14:08;24.40;61.60
53962;DHT22;39868;53.398;6.564;2023-07-13T16:16:35;24.40;61.70
53962;DHT22;39868;53.398;6.564;2023-07-13T16:19:04;24.40;61.80
53962;DHT22;39868;53.398;6.564;2023-07-13T16:21:32;24.40;61.80
53962;DHT22;39868;53.398;6.564;2023-07-13T16:24:01;24.40;61.70
53962;DHT22;39868;53.398;6.564;2023-07-13T16:26:35;24.50;61.80
53962;DHT22;39868;53.398;6.564;2023-07-13T16:29:13;24.50;61.80